Etusivu
METAR-TAF:

METAR-TAF

Lentoasemat :

San Angelo Regional Airport (Mathis Field)

San Angelo, Texas, Yhdysvallat

Leveyspiiri: 31-21-05N, Pituuspiiri: 100-29-38W, korkeus merenpinnasta: 584 m

Tämänhetkinen sää

Tämä raportti tehtiin 59 minuuttia sitten, kello 20.51 UTC
Tuuli 11 kn etelästä puuskistuen 21 kn:hen
Lämpötila 36°C
Kosteus 29%
Ilmanpaine 1017 hPa
Näkyvyys: 16.1 km
selkeää

METAR: KSJT 222051Z 18011G21KT 10SM CLR 36/15 A3003 RMK AO2 SLP140 T03560150 57019

Aika: 16:50 (21:50 UTC)

Sääennuste

Tämä raportti tehtiin 4 tuntia ja 30 minuuttia sitten, kello 17.20 UTC
Ennuste voimassa 22. päivästä klo 18 UTC - 23. päivään klo 18 UTC
Tuuli 7 kn etelästä puuskistuen 17 kn:hen
Näkyvyys: 10 km
selkeää
From 23. päivästä klo 0000 UTC
Tuuli 6 kn eri suunnista
Näkyvyys: 10 km
selkeää

TAF: KSJT 221720Z 2218/2318 18007G17KT P6SM SKC FM230000 VRB06KT P6SM SKC

Säähavainnot ja -ennusteet yli 4000 lentoasemalta (METAR- ja TAF-raportit).

Käytössä olevat sääasemat on merkitty karttaan keltaisilla ja punaisilla pisteillä.

Aseta hiiri pisteen päälle nähdäksesi sääaseman nimen.

Klikkaa sitten nähdäksesi säähavainnot ja -ennusteet.

Kartan vaihtaminen: klikkaa mustalla rastilla varustettuja vihreitä pisteitä, niin voit zoomata sisään; viivalla varustettua vihreää pistettä, niin voit zoomata ulos tai vihreitä nuolia, niin pääset viereisille kartoille.


METAR-TAF: